createdAt,value
2018-11-02T00:00:04.659Z,0
2018-11-02T00:01:05.179Z,0
2018-11-02T00:02:05.808Z,0
2018-11-02T00:03:06.382Z,0
2018-11-02T00:04:07.010Z,0
2018-11-02T00:05:07.585Z,0
2018-11-02T00:06:08.191Z,0
2018-11-02T00:07:08.740Z,0
2018-11-02T00:08:09.319Z,0
2018-11-02T00:09:09.897Z,0
2018-11-02T00:10:10.514Z,0
2018-11-02T00:11:11.094Z,0
2018-11-02T00:12:11.684Z,0
2018-11-02T00:13:56.765Z,0
2018-11-02T00:14:57.381Z,0
2018-11-02T00:15:57.959Z,0
2018-11-02T00:16:58.538Z,0
2018-11-02T00:17:59.164Z,0
2018-11-02T00:18:59.738Z,0
2018-11-02T00:20:00.398Z,0
2018-11-02T00:21:00.941Z,0
2018-11-02T00:22:01.517Z,0
2018-11-02T00:23:02.093Z,0
2018-11-02T00:24:02.723Z,0
2018-11-02T00:25:03.328Z,0
2018-11-02T00:26:03.871Z,0
2018-11-02T00:27:04.448Z,0
2018-11-02T00:28:05.025Z,0
2018-11-02T00:29:05.604Z,0
2018-11-02T00:30:06.190Z,0
2018-11-02T00:31:06.956Z,0
2018-11-02T00:32:07.693Z,0
2018-11-02T00:33:08.160Z,0
2018-11-02T00:34:08.792Z,0
2018-11-02T00:35:53.831Z,0
2018-11-02T00:36:54.408Z,0
2018-11-02T00:37:54.982Z,0
2018-11-02T00:38:55.559Z,0
2018-11-02T00:39:56.133Z,0
2018-11-02T00:40:56.708Z,0
2018-11-02T00:41:57.284Z,0
2018-11-02T00:42:57.859Z,0
2018-11-02T00:43:58.483Z,0
2018-11-02T00:44:59.010Z,0
2018-11-02T00:45:59.601Z,0
2018-11-02T00:47:00.165Z,0
2018-11-02T00:48:00.743Z,0
2018-11-02T00:49:01.413Z,0
2018-11-02T00:50:01.989Z,0
2018-11-02T00:51:02.565Z,0
2018-11-02T00:52:03.142Z,0
2018-11-02T00:53:03.848Z,0
2018-11-02T00:54:04.489Z,0
2018-11-02T00:55:05.130Z,0
2018-11-02T00:56:05.695Z,0
2018-11-02T00:57:50.784Z,0
2018-11-02T00:58:51.393Z,0
2018-11-02T00:59:51.937Z,0
2018-11-02T01:00:52.568Z,0
2018-11-02T01:01:53.180Z,0
2018-11-02T01:02:53.798Z,0
2018-11-02T01:03:54.374Z,0
2018-11-02T01:04:54.951Z,0
2018-11-02T01:05:55.526Z,0
2018-11-02T01:06:56.100Z,0
2018-11-02T01:07:56.676Z,0
2018-11-02T01:08:57.309Z,0
2018-11-02T01:09:57.879Z,0
2018-11-02T01:10:58.506Z,0
2018-11-02T01:11:59.081Z,0
2018-11-02T01:12:59.666Z,0
2018-11-02T01:14:00.235Z,0
2018-11-02T01:15:00.813Z,0
2018-11-02T01:16:01.390Z,0
2018-11-02T01:17:01.977Z,0
2018-11-02T01:18:02.593Z,0
2018-11-02T01:19:47.684Z,0
2018-11-02T01:20:48.254Z,0
2018-11-02T01:21:48.837Z,0
2018-11-02T01:22:49.403Z,0
2018-11-02T01:23:49.979Z,0
2018-11-02T01:24:50.555Z,0
2018-11-02T01:25:51.155Z,0
2018-11-02T01:26:51.756Z,0
2018-11-02T01:27:52.336Z,0
2018-11-02T01:28:52.910Z,0
2018-11-02T01:29:53.561Z,0
2018-11-02T01:30:54.112Z,0
2018-11-02T01:31:54.689Z,0
2018-11-02T01:32:55.267Z,0
2018-11-02T01:33:55.844Z,0
2018-11-02T01:34:56.448Z,0
2018-11-02T01:35:57.001Z,0
2018-11-02T01:36:57.577Z,0
2018-11-02T01:37:58.197Z,0
2018-11-02T01:38:58.831Z,0
2018-11-02T01:39:59.401Z,0
2018-11-02T01:41:44.497Z,0
2018-11-02T01:42:45.069Z,0
2018-11-02T01:43:45.646Z,0
2018-11-02T01:44:46.224Z,0
2018-11-02T01:45:46.800Z,0
2018-11-02T01:46:47.422Z,0
2018-11-02T01:47:47.993Z,0
2018-11-02T01:48:48.627Z,0
2018-11-02T01:49:49.244Z,0
2018-11-02T01:50:49.865Z,0
2018-11-02T01:51:50.400Z,0
2018-11-02T01:52:50.977Z,0
2018-11-02T01:53:51.594Z,0
2018-11-02T01:54:52.171Z,0
2018-11-02T01:55:52.788Z,0
2018-11-02T01:56:53.364Z,0
2018-11-02T01:57:53.991Z,0
2018-11-02T01:58:54.568Z,0
2018-11-02T01:59:55.145Z,0
2018-11-02T02:00:55.727Z,0
2018-11-02T02:01:56.300Z,0
2018-11-02T02:03:41.389Z,0
2018-11-02T02:04:41.966Z,0
2018-11-02T02:05:42.542Z,0
2018-11-02T02:06:43.119Z,0
2018-11-02T02:07:43.722Z,0
2018-11-02T02:08:44.321Z,0
2018-11-02T02:09:44.947Z,0
2018-11-02T02:10:45.524Z,0
2018-11-02T02:11:46.101Z,0
2018-11-02T02:12:46.680Z,0
2018-11-02T02:13:47.254Z,0
2018-11-02T02:14:47.878Z,0
2018-11-02T02:15:48.455Z,0
2018-11-02T02:16:49.034Z,0
2018-11-02T02:17:49.609Z,0
2018-11-02T02:18:50.189Z,0
2018-11-02T02:19:50.766Z,0
2018-11-02T02:20:51.340Z,0
2018-11-02T02:21:51.917Z,0
2018-11-02T02:22:52.494Z,0
2018-11-02T02:23:53.121Z,0
2018-11-02T02:25:38.212Z,0
2018-11-02T02:26:38.789Z,0
2018-11-02T02:27:39.364Z,0
2018-11-02T02:28:39.941Z,0
2018-11-02T02:29:40.517Z,0
2018-11-02T02:30:41.094Z,0
2018-11-02T02:31:41.670Z,0
2018-11-02T02:32:42.334Z,0
2018-11-02T02:33:42.908Z,0
2018-11-02T02:34:43.540Z,0
2018-11-02T02:35:44.112Z,0
2018-11-02T02:36:44.695Z,0
2018-11-02T02:37:45.307Z,0
2018-11-02T02:38:45.883Z,0
2018-11-02T02:39:46.459Z,0
2018-11-02T02:40:47.085Z,0
2018-11-02T02:41:47.662Z,0
2018-11-02T02:42:48.241Z,0
2018-11-02T02:43:48.852Z,0
2018-11-02T02:44:49.433Z,0
2018-11-02T02:45:50.008Z,0
2018-11-02T02:47:35.100Z,0
2018-11-02T02:48:35.677Z,0
2018-11-02T02:49:36.253Z,0
2018-11-02T02:50:36.880Z,0
2018-11-02T02:51:37.457Z,0
2018-11-02T02:52:38.083Z,0
2018-11-02T02:53:38.661Z,0
2018-11-02T02:54:39.238Z,0
2018-11-02T02:55:39.811Z,0
2018-11-02T02:56:40.387Z,0
2018-11-02T02:57:40.963Z,0
2018-11-02T02:58:41.543Z,0
2018-11-02T02:59:42.165Z,0
2018-11-02T03:00:42.745Z,0
2018-11-02T03:01:43.351Z,0
2018-11-02T03:02:43.903Z,0
2018-11-02T03:03:44.473Z,0
2018-11-02T03:04:45.065Z,0
2018-11-02T03:05:45.630Z,0
2018-11-02T03:06:46.200Z,0
2018-11-02T03:07:46.797Z,0
2018-11-02T03:09:31.915Z,0
2018-11-02T03:10:32.558Z,0
2018-11-02T03:11:33.068Z,0
2018-11-02T03:12:33.646Z,0
2018-11-02T03:13:34.271Z,0
2018-11-02T03:14:34.846Z,0
2018-11-02T03:15:35.422Z,0
2018-11-02T03:16:35.996Z,0
2018-11-02T03:17:36.570Z,0
2018-11-02T03:18:37.173Z,0
2018-11-02T03:19:37.724Z,0
2018-11-02T03:20:38.347Z,0
2018-11-02T03:21:38.968Z,0
2018-11-02T03:22:39.626Z,0
2018-11-02T03:23:40.118Z,0
2018-11-02T03:24:40.694Z,0
2018-11-02T03:25:41.320Z,0
2018-11-02T03:26:41.897Z,0
2018-11-02T03:27:42.476Z,0
2018-11-02T03:28:43.096Z,0
2018-11-02T03:29:43.672Z,0
2018-11-02T03:31:28.716Z,0
2018-11-02T03:32:29.336Z,0
2018-11-02T03:33:29.962Z,0
2018-11-02T03:34:30.530Z,0
2018-11-02T03:35:31.106Z,0
2018-11-02T03:36:31.733Z,0
2018-11-02T03:37:32.308Z,0
2018-11-02T03:38:32.882Z,0
2018-11-02T03:39:33.457Z,0
2018-11-02T03:40:34.032Z,0
2018-11-02T03:41:34.662Z,0
2018-11-02T03:42:35.277Z,0
2018-11-02T03:43:35.854Z,0
2018-11-02T03:44:36.430Z,0
2018-11-02T03:45:37.010Z,0
2018-11-02T03:46:37.583Z,0
2018-11-02T03:47:38.164Z,0
2018-11-02T03:48:38.795Z,0
2018-11-02T03:49:39.410Z,0
2018-11-02T03:50:39.982Z,0
2018-11-02T03:51:40.558Z,0
2018-11-02T03:53:25.776Z,0
2018-11-02T03:54:26.269Z,0
2018-11-02T03:55:26.846Z,0
2018-11-02T03:56:27.453Z,0
2018-11-02T03:57:28.049Z,0
2018-11-02T03:58:28.622Z,0
2018-11-02T03:59:29.248Z,0
2018-11-02T04:00:29.827Z,0
2018-11-02T04:01:30.520Z,0
2018-11-02T04:02:31.096Z,0
2018-11-02T04:03:31.682Z,0
2018-11-02T04:04:32.250Z,0
2018-11-02T04:05:32.827Z,0
2018-11-02T04:06:33.404Z,0
2018-11-02T04:07:34.024Z,0
2018-11-02T04:08:34.600Z,0
2018-11-02T04:09:35.252Z,0
2018-11-02T04:10:35.845Z,0
2018-11-02T04:11:36.420Z,0
2018-11-02T04:12:37.032Z,0
2018-11-02T04:13:37.609Z,0
2018-11-02T04:15:22.900Z,0
2018-11-02T04:16:23.476Z,0
2018-11-02T04:17:24.054Z,0
2018-11-02T04:18:24.635Z,0
2018-11-02T04:19:25.218Z,0
2018-11-02T04:20:25.777Z,0
2018-11-02T04:21:26.353Z,0
2018-11-02T04:22:26.927Z,0
2018-11-02T04:23:27.502Z,0
2018-11-02T04:24:28.128Z,0
2018-11-02T04:25:28.708Z,0
2018-11-02T04:26:29.327Z,0
2018-11-02T04:27:29.906Z,0
2018-11-02T04:28:30.479Z,0
2018-11-02T04:29:31.055Z,0
2018-11-02T04:30:31.631Z,0
2018-11-02T04:31:32.208Z,0
2018-11-02T04:32:32.782Z,0
2018-11-02T04:33:33.435Z,0
2018-11-02T04:34:33.986Z,0
2018-11-02T04:35:34.565Z,0
2018-11-02T04:37:19.613Z,0
2018-11-02T04:38:20.228Z,0
2018-11-02T04:39:20.805Z,0
2018-11-02T04:40:21.382Z,0
2018-11-02T04:41:22.007Z,0
2018-11-02T04:42:22.582Z,0
2018-11-02T04:43:23.186Z,0
2018-11-02T04:44:23.770Z,0
2018-11-02T04:45:24.345Z,0
2018-11-02T04:46:24.920Z,0
2018-11-02T04:47:25.497Z,0
2018-11-02T04:48:26.072Z,0
2018-11-02T04:49:26.647Z,0
2018-11-02T04:50:27.223Z,0
2018-11-02T04:51:27.849Z,0
2018-11-02T04:52:28.423Z,0
2018-11-02T04:53:29.007Z,0
2018-11-02T04:54:29.577Z,0
2018-11-02T04:55:30.205Z,0
2018-11-02T04:56:30.788Z,0
2018-11-02T04:57:31.411Z,0
2018-11-02T04:59:16.501Z,0
2018-11-02T05:00:17.077Z,0
2018-11-02T05:01:17.656Z,0
2018-11-02T05:02:18.231Z,0
2018-11-02T05:03:18.805Z,0
2018-11-02T05:04:19.394Z,0
2018-11-02T05:05:19.965Z,0
2018-11-02T05:06:20.576Z,0
2018-11-02T05:07:21.151Z,0
2018-11-02T05:08:21.728Z,0
2018-11-02T05:09:22.360Z,0
2018-11-02T05:10:22.927Z,0
2018-11-02T05:11:23.594Z,0
2018-11-02T05:12:24.119Z,0
2018-11-02T05:13:24.695Z,0
2018-11-02T05:14:25.272Z,0
2018-11-02T05:15:25.900Z,0
2018-11-02T05:16:26.475Z,0
2018-11-02T05:17:27.143Z,0
2018-11-02T05:18:27.746Z,0
2018-11-02T05:19:28.297Z,0
2018-11-02T05:21:13.350Z,0
2018-11-02T05:22:13.911Z,0
2018-11-02T05:23:14.491Z,0
2018-11-02T05:24:15.065Z,0
2018-11-02T05:25:15.687Z,0
2018-11-02T05:26:16.341Z,0
2018-11-02T05:27:16.877Z,0
2018-11-02T05:28:17.455Z,0
2018-11-02T05:29:18.078Z,0
2018-11-02T05:30:18.658Z,0
2018-11-02T05:31:19.467Z,0
2018-11-02T05:32:20.042Z,0
2018-11-02T05:33:20.618Z,0
2018-11-02T05:34:21.202Z,0
2018-11-02T05:35:21.768Z,0
2018-11-02T05:36:22.350Z,0
2018-11-02T05:37:22.974Z,0
2018-11-02T05:38:23.548Z,0
2018-11-02T05:39:24.194Z,0
2018-11-02T05:40:24.699Z,0
2018-11-02T05:41:25.326Z,0
2018-11-02T05:43:10.417Z,0
2018-11-02T05:44:10.993Z,0
2018-11-02T05:45:11.569Z,0
2018-11-02T05:46:12.147Z,0
2018-11-02T05:47:12.863Z,0
2018-11-02T05:48:13.346Z,0
2018-11-02T05:49:14.017Z,0
2018-11-02T05:50:14.548Z,0
2018-11-02T05:51:15.125Z,0
2018-11-02T05:52:15.700Z,0
2018-11-02T05:53:16.329Z,0
2018-11-02T05:54:17.090Z,0
2018-11-02T05:55:17.524Z,0
2018-11-02T05:56:18.153Z,0
2018-11-02T05:57:18.726Z,0
2018-11-02T05:58:19.303Z,0
2018-11-02T05:59:19.922Z,0
2018-11-02T06:00:20.498Z,0
2018-11-02T06:01:21.116Z,0
2018-11-02T06:02:21.800Z,0
2018-11-02T06:03:22.385Z,0
2018-11-02T06:05:07.468Z,0
2018-11-02T06:06:08.043Z,0
2018-11-02T06:07:08.621Z,0
2018-11-02T06:08:09.198Z,0
2018-11-02T06:09:09.773Z,0
2018-11-02T06:10:10.356Z,0
2018-11-02T06:11:10.962Z,0
2018-11-02T06:12:11.596Z,0
2018-11-02T06:13:12.206Z,0
2018-11-02T06:14:12.788Z,0
2018-11-02T06:15:13.411Z,0
2018-11-02T06:16:14.005Z,0
2018-11-02T06:17:14.560Z,0
2018-11-02T06:18:15.137Z,0
2018-11-02T06:19:15.713Z,0
2018-11-02T06:20:16.288Z,0
2018-11-02T06:21:16.875Z,0
2018-11-02T06:22:17.439Z,0
2018-11-02T06:23:18.015Z,0
2018-11-02T06:24:18.698Z,0
2018-11-02T06:25:19.205Z,0
2018-11-02T06:27:04.295Z,0
2018-11-02T06:28:04.870Z,0
2018-11-02T06:29:05.507Z,0
2018-11-02T06:30:06.075Z,0
2018-11-02T06:31:07.500Z,0
2018-11-02T06:32:08.125Z,0
2018-11-02T06:33:08.702Z,0
2018-11-02T06:34:09.378Z,0
2018-11-02T06:35:09.952Z,0
2018-11-02T06:36:10.529Z,0
2018-11-02T06:37:11.104Z,0
2018-11-02T06:38:11.681Z,0
2018-11-02T06:39:12.263Z,0
2018-11-02T06:40:12.835Z,0
2018-11-02T06:41:13.411Z,0
2018-11-02T06:42:13.988Z,0
2018-11-02T06:43:14.564Z,0
2018-11-02T06:44:15.137Z,0
2018-11-02T06:45:15.783Z,0
2018-11-02T06:46:16.291Z,0
2018-11-02T06:47:16.918Z,0
2018-11-02T06:49:02.028Z,0
2018-11-02T06:50:02.677Z,0
2018-11-02T06:51:03.367Z,0
2018-11-02T06:52:03.828Z,0
2018-11-02T06:53:04.405Z,0
2018-11-02T06:54:05.027Z,0
2018-11-02T06:55:05.648Z,0
2018-11-02T06:56:06.225Z,0
2018-11-02T06:57:06.802Z,0
2018-11-02T06:58:07.378Z,0
2018-11-02T06:59:08.024Z,0
2018-11-02T07:00:08.772Z,0
2018-11-02T07:01:09.148Z,0
2018-11-02T07:02:09.721Z,0
2018-11-02T07:03:10.296Z,0
2018-11-02T07:04:10.931Z,0
2018-11-02T07:05:11.499Z,0
2018-11-02T07:06:12.077Z,0
2018-11-02T07:07:12.689Z,0
2018-11-02T07:08:13.292Z,0
2018-11-02T07:09:13.892Z,0
2018-11-02T07:10:58.940Z,0
2018-11-02T07:11:59.520Z,0
2018-11-02T07:13:00.132Z,0
2018-11-02T07:14:00.714Z,0
2018-11-02T07:15:01.287Z,0
2018-11-02T07:16:01.864Z,0
2018-11-02T07:17:02.480Z,0
2018-11-02T07:18:03.054Z,0
2018-11-02T07:19:03.628Z,0
2018-11-02T07:20:04.206Z,0
2018-11-02T07:21:04.832Z,0
2018-11-02T07:22:05.407Z,0
2018-11-02T07:23:05.985Z,0
2018-11-02T07:24:06.561Z,0
2018-11-02T07:25:07.256Z,0
2018-11-02T07:26:07.774Z,0
2018-11-02T07:27:08.341Z,0
2018-11-02T07:28:08.917Z,0
2018-11-02T07:29:09.526Z,0
2018-11-02T07:30:10.073Z,0
2018-11-02T07:31:10.650Z,0
2018-11-02T07:32:55.889Z,0
2018-11-02T07:33:56.518Z,0
2018-11-02T07:34:57.095Z,0
2018-11-02T07:35:57.669Z,0
2018-11-02T07:36:58.249Z,0
2018-11-02T07:37:58.819Z,0
2018-11-02T07:38:59.407Z,0
2018-11-02T07:40:00.015Z,0
2018-11-02T07:41:00.592Z,0
2018-11-02T07:42:01.219Z,0
2018-11-02T07:43:01.795Z,0
2018-11-02T07:44:02.420Z,0
2018-11-02T07:45:03.001Z,0
2018-11-02T07:46:03.583Z,0
2018-11-02T07:47:04.153Z,0
2018-11-02T07:48:04.728Z,0
2018-11-02T07:49:05.305Z,0
2018-11-02T07:50:05.879Z,0
2018-11-02T07:51:06.456Z,0
2018-11-02T07:52:07.082Z,0
2018-11-02T07:53:07.661Z,0
2018-11-02T07:54:52.699Z,0
2018-11-02T07:55:53.272Z,0
2018-11-02T07:56:53.851Z,0
2018-11-02T07:57:54.467Z,0
2018-11-02T07:58:55.102Z,0
2018-11-02T07:59:55.670Z,0
2018-11-02T08:00:56.295Z,0
2018-11-02T08:01:56.886Z,0
2018-11-02T08:02:57.443Z,0
2018-11-02T08:03:58.018Z,0
2018-11-02T08:04:58.638Z,0
2018-11-02T08:05:59.211Z,0
2018-11-02T08:06:59.787Z,0
2018-11-02T08:08:00.367Z,0
2018-11-02T08:09:00.993Z,0
2018-11-02T08:10:01.558Z,0
2018-11-02T08:11:02.230Z,0
2018-11-02T08:12:02.803Z,0
2018-11-02T08:13:03.380Z,0
2018-11-02T08:14:03.960Z,0
2018-11-02T08:15:04.531Z,0
2018-11-02T08:16:49.668Z,0
2018-11-02T08:17:50.367Z,0
2018-11-02T08:18:50.945Z,0
2018-11-02T08:19:51.521Z,0
2018-11-02T08:20:52.098Z,0
2018-11-02T08:21:52.674Z,0
2018-11-02T08:22:53.249Z,0
2018-11-02T08:23:53.831Z,0
2018-11-02T08:24:54.445Z,0
2018-11-02T08:25:55.021Z,0
2018-11-02T08:26:55.598Z,0
2018-11-02T08:27:56.221Z,0
2018-11-02T08:28:56.804Z,0
2018-11-02T08:29:57.378Z,0
2018-11-02T08:30:57.965Z,0
2018-11-02T08:31:58.564Z,0
2018-11-02T08:32:59.110Z,0
2018-11-02T08:33:59.732Z,0
2018-11-02T08:35:00.311Z,0
2018-11-02T08:36:00.891Z,0
2018-11-02T08:37:01.518Z,0
2018-11-02T08:38:46.603Z,0
2018-11-02T08:39:47.180Z,0
2018-11-02T08:40:47.759Z,0
2018-11-02T08:41:48.334Z,0
2018-11-02T08:42:48.918Z,0
2018-11-02T08:43:49.485Z,0
2018-11-02T08:44:50.061Z,0
2018-11-02T08:45:50.636Z,0
2018-11-02T08:46:51.214Z,0
2018-11-02T08:47:51.836Z,0
2018-11-02T08:48:52.414Z,0
2018-11-02T08:49:52.990Z,0
2018-11-02T08:50:53.568Z,0
2018-11-02T08:51:54.154Z,0
2018-11-02T08:52:54.720Z,0
2018-11-02T08:53:55.306Z,0
2018-11-02T08:54:55.923Z,0
2018-11-02T08:55:56.500Z,0
2018-11-02T08:56:57.126Z,0
2018-11-02T08:57:57.838Z,0
2018-11-02T08:58:58.336Z,0
2018-11-02T09:00:43.370Z,0
2018-11-02T09:01:43.946Z,0
2018-11-02T09:02:44.523Z,0
2018-11-02T09:03:45.102Z,0
2018-11-02T09:04:45.682Z,0
2018-11-02T09:05:46.261Z,0
2018-11-02T09:06:46.850Z,0
2018-11-02T09:07:47.404Z,0
2018-11-02T09:08:47.979Z,0
2018-11-02T09:09:48.554Z,0
2018-11-02T09:10:49.131Z,0
2018-11-02T09:11:49.764Z,0
2018-11-02T09:12:50.341Z,0
2018-11-02T09:13:51.108Z,0
2018-11-02T09:14:51.683Z,0
2018-11-02T09:15:52.309Z,0
2018-11-02T09:16:52.887Z,0
2018-11-02T09:17:53.462Z,0
2018-11-02T09:18:54.048Z,0
2018-11-02T09:19:54.695Z,0
2018-11-02T09:20:55.265Z,0
2018-11-02T09:22:40.327Z,0
2018-11-02T09:23:40.902Z,0
2018-11-02T09:24:41.482Z,0
2018-11-02T09:25:42.056Z,0
2018-11-02T09:26:42.631Z,0
2018-11-02T09:27:43.208Z,0
2018-11-02T09:28:43.784Z,0
2018-11-02T09:29:44.364Z,0
2018-11-02T09:30:44.987Z,0
2018-11-02T09:31:45.561Z,0
2018-11-02T09:32:46.191Z,0
2018-11-02T09:33:46.766Z,0
2018-11-02T09:34:47.381Z,0
2018-11-02T09:35:48.006Z,0
2018-11-02T09:36:48.582Z,0
2018-11-02T09:37:49.160Z,0
2018-11-02T09:38:49.737Z,0
2018-11-02T09:39:50.313Z,0
2018-11-02T09:40:50.890Z,0
2018-11-02T09:41:51.474Z,0
2018-11-02T09:42:52.224Z,0
2018-11-02T09:44:42.187Z,0
2018-11-02T09:45:42.765Z,0
2018-11-02T09:46:43.435Z,0
2018-11-02T09:47:44.010Z,0
2018-11-02T09:48:44.592Z,0
2018-11-02T09:49:45.160Z,0
2018-11-02T09:50:45.737Z,0
2018-11-02T09:51:46.357Z,0
2018-11-02T09:52:46.889Z,0
2018-11-02T09:53:47.525Z,0
2018-11-02T09:54:48.092Z,0
2018-11-02T09:55:48.717Z,0
2018-11-02T09:56:49.297Z,0
2018-11-02T09:57:49.967Z,0
2018-11-02T09:58:50.454Z,0
2018-11-02T09:59:51.025Z,0
2018-11-02T10:00:51.944Z,0
2018-11-02T10:01:52.225Z,0
2018-11-02T10:02:52.755Z,0
2018-11-02T10:03:53.384Z,0
2018-11-02T10:04:53.960Z,0
2018-11-02T10:06:39.054Z,0
2018-11-02T10:07:39.670Z,0
2018-11-02T10:08:40.256Z,0
2018-11-02T10:09:40.825Z,0
2018-11-02T10:10:41.399Z,0
2018-11-02T10:11:42.030Z,0
2018-11-02T10:12:42.601Z,0
2018-11-02T10:13:43.227Z,0
2018-11-02T10:14:43.803Z,0
2018-11-02T10:15:44.379Z,0
2018-11-02T10:16:44.959Z,0
2018-11-02T10:17:45.579Z,0
2018-11-02T10:18:46.157Z,0
2018-11-02T10:19:46.736Z,0
2018-11-02T10:20:47.311Z,0
2018-11-02T10:21:47.890Z,0
2018-11-02T10:22:48.516Z,0
2018-11-02T10:23:49.105Z,0
2018-11-02T10:24:49.717Z,0
2018-11-02T10:25:50.292Z,0
2018-11-02T10:26:50.879Z,0
2018-11-02T10:28:35.958Z,0
2018-11-02T10:29:36.538Z,0
2018-11-02T10:30:37.153Z,0
2018-11-02T10:31:37.731Z,0
2018-11-02T10:32:38.358Z,0
2018-11-02T10:33:38.968Z,0
2018-11-02T10:34:39.594Z,0
2018-11-02T10:35:40.317Z,0
2018-11-02T10:36:40.798Z,0
2018-11-02T10:37:41.373Z,0
2018-11-02T10:38:41.950Z,0
2018-11-02T10:39:42.794Z,0
2018-11-02T10:40:43.251Z,0
2018-11-02T10:41:43.827Z,0
2018-11-02T10:42:44.402Z,0
2018-11-02T10:43:44.978Z,0
2018-11-02T10:44:45.591Z,0
2018-11-02T10:45:46.129Z,0
2018-11-02T10:46:46.710Z,0
2018-11-02T10:47:47.286Z,0
2018-11-02T10:48:47.865Z,0
2018-11-02T10:50:32.952Z,0
2018-11-02T10:51:33.527Z,0
2018-11-02T10:52:34.104Z,0
2018-11-02T10:53:34.736Z,0
2018-11-02T10:54:35.376Z,0
2018-11-02T10:55:35.883Z,0
2018-11-02T10:56:36.568Z,0
2018-11-02T10:57:37.327Z,0
2018-11-02T10:58:37.860Z,0
2018-11-02T10:59:38.473Z,0
2018-11-02T11:00:39.153Z,0
2018-11-02T11:01:39.635Z,0
2018-11-02T11:02:40.241Z,0
2018-11-02T11:03:40.818Z,0
2018-11-02T11:04:41.392Z,0
2018-11-02T11:05:41.969Z,0
2018-11-02T11:06:42.547Z,0
2018-11-02T11:07:43.129Z,0
2018-11-02T11:08:43.793Z,0
2018-11-02T11:09:44.369Z,0
2018-11-02T11:10:44.947Z,0
2018-11-02T11:12:30.161Z,0
2018-11-02T11:13:31.041Z,50
2018-11-02T11:14:31.197Z,45
2018-11-02T11:15:31.827Z,50
2018-11-02T11:16:32.467Z,60
2018-11-02T11:17:33.044Z,70
2018-11-02T11:18:33.623Z,65
2018-11-02T11:19:34.214Z,75
2018-11-02T11:20:34.781Z,85
2018-11-02T11:21:35.464Z,90
2018-11-02T11:22:35.945Z,85
2018-11-02T11:23:36.525Z,85
2018-11-02T11:24:37.109Z,95
2018-11-02T11:25:37.753Z,100
2018-11-02T11:26:38.328Z,105
2018-11-02T11:27:38.958Z,110
2018-11-02T11:28:39.538Z,105
2018-11-02T11:29:40.122Z,100
2018-11-02T11:30:40.703Z,110
2018-11-02T11:31:41.288Z,115
2018-11-02T11:32:41.920Z,115
2018-11-02T11:34:27.066Z,90
2018-11-02T11:35:27.654Z,90
2018-11-02T11:36:28.226Z,80
2018-11-02T11:37:28.834Z,85
2018-11-02T11:38:29.390Z,85
2018-11-02T11:39:30.024Z,95
2018-11-02T11:40:30.553Z,105
2018-11-02T11:41:31.139Z,115
2018-11-02T11:42:31.715Z,85
2018-11-02T11:43:32.300Z,85
2018-11-02T11:44:32.885Z,85
2018-11-02T11:45:33.503Z,85
2018-11-02T11:46:34.084Z,65
2018-11-02T11:47:34.718Z,50
2018-11-02T11:48:35.369Z,45
2018-11-02T11:49:35.881Z,45
2018-11-02T11:50:36.465Z,60
2018-11-02T11:51:37.244Z,85
2018-11-02T11:52:37.829Z,110
2018-11-02T11:53:38.414Z,105
2018-11-02T11:54:39.163Z,120
2018-11-02T11:56:24.188Z,105
2018-11-02T11:57:24.770Z,75
2018-11-02T11:58:25.350Z,70
2018-11-02T11:59:25.934Z,75
2018-11-02T12:00:26.523Z,75
2018-11-02T12:01:27.096Z,60
2018-11-02T12:02:27.778Z,65
2018-11-02T12:03:28.306Z,80
2018-11-02T12:04:28.900Z,95
2018-11-02T12:05:29.470Z,135
2018-11-02T12:06:30.054Z,190
2018-11-02T12:07:30.697Z,185
2018-11-02T12:08:31.268Z,160
2018-11-02T12:09:31.851Z,160
2018-11-02T12:10:32.571Z,95
2018-11-02T12:11:33.016Z,100
2018-11-02T12:12:33.600Z,90
2018-11-02T12:13:34.178Z,75
2018-11-02T12:14:34.765Z,70
2018-11-02T12:15:35.355Z,85
2018-11-02T12:16:35.983Z,65
2018-11-02T12:18:21.083Z,100
2018-11-02T12:19:21.676Z,180
2018-11-02T12:20:22.240Z,125
2018-11-02T12:21:22.872Z,135
2018-11-02T12:22:23.456Z,170
2018-11-02T12:23:24.044Z,165
2018-11-02T12:24:24.622Z,145
2018-11-02T12:25:25.208Z,140
2018-11-02T12:26:25.823Z,135
2018-11-02T12:27:26.406Z,165
2018-11-02T12:28:26.992Z,190
2018-11-02T12:29:27.577Z,210
2018-11-02T12:30:28.256Z,215
2018-11-02T12:31:28.949Z,215
2018-11-02T12:32:29.582Z,195
2018-11-02T12:33:30.157Z,200
2018-11-02T12:34:30.747Z,210
2018-11-02T12:35:31.324Z,220
2018-11-02T12:36:31.923Z,225
2018-11-02T12:37:32.494Z,210
2018-11-02T12:38:33.085Z,225
2018-11-02T12:40:18.177Z,190
2018-11-02T12:41:18.759Z,170
2018-11-02T12:42:19.353Z,160
2018-11-02T12:43:19.987Z,160
2018-11-02T12:44:20.511Z,155
2018-11-02T12:45:21.093Z,205
2018-11-02T12:46:21.678Z,200
2018-11-02T12:47:22.418Z,205
2018-11-02T12:48:23.137Z,190
2018-11-02T12:49:23.982Z,165
2018-11-02T12:50:24.559Z,170
2018-11-02T12:51:25.034Z,165
2018-11-02T12:52:25.616Z,165
2018-11-02T12:53:26.199Z,195
2018-11-02T12:54:26.793Z,220
2018-11-02T12:55:27.518Z,190
2018-11-02T12:56:28.103Z,185
2018-11-02T12:57:28.694Z,175
2018-11-02T12:58:29.270Z,180
2018-11-02T12:59:29.858Z,145
2018-11-02T13:00:30.441Z,130
2018-11-02T13:02:15.539Z,210
2018-11-02T13:03:16.122Z,195
2018-11-02T13:04:16.706Z,185
2018-11-02T13:05:17.294Z,180
2018-11-02T13:06:17.925Z,170
2018-11-02T13:07:18.510Z,165
2018-11-02T13:08:19.247Z,175
2018-11-02T13:09:19.884Z,160
2018-11-02T13:10:20.410Z,170
2018-11-02T13:11:21.026Z,205
2018-11-02T13:12:21.580Z,250
2018-11-02T13:13:22.165Z,230
2018-11-02T13:14:22.750Z,175
2018-11-02T13:15:23.385Z,195
2018-11-02T13:16:23.965Z,220
2018-11-02T13:17:24.558Z,215
2018-11-02T13:18:25.136Z,210
2018-11-02T13:19:25.719Z,190
2018-11-02T13:20:26.303Z,225
2018-11-02T13:21:26.892Z,235
2018-11-02T13:22:27.524Z,245
2018-11-02T13:24:12.672Z,255
2018-11-02T13:25:13.256Z,245
2018-11-02T13:26:13.903Z,235
2018-11-02T13:27:14.424Z,230
2018-11-02T13:28:15.063Z,195
2018-11-02T13:29:15.635Z,170
2018-11-02T13:30:16.304Z,170
2018-11-02T13:31:16.851Z,205
2018-11-02T13:32:17.427Z,215
2018-11-02T13:33:18.020Z,170
2018-11-02T13:34:18.599Z,145
2018-11-02T13:35:19.334Z,145
2018-11-02T13:36:19.965Z,150
2018-11-02T13:37:20.538Z,190
2018-11-02T13:38:21.124Z,195
2018-11-02T13:39:21.758Z,235
2018-11-02T13:40:22.343Z,245
2018-11-02T13:41:22.926Z,250
2018-11-02T13:42:23.512Z,260
2018-11-02T13:43:24.123Z,235
2018-11-02T13:44:24.775Z,225
2018-11-02T13:46:09.823Z,230
2018-11-02T13:47:10.409Z,230
2018-11-02T13:48:10.992Z,265
2018-11-02T13:49:11.579Z,270
2018-11-02T13:50:12.235Z,265
2018-11-02T13:51:12.789Z,210
2018-11-02T13:52:13.379Z,230
2018-11-02T13:53:14.003Z,280
2018-11-02T13:54:14.638Z,285
2018-11-02T13:55:15.273Z,240
2018-11-02T13:56:15.808Z,190
2018-11-02T13:57:16.393Z,190
2018-11-02T13:58:16.979Z,165
2018-11-02T13:59:17.582Z,160
2018-11-02T14:00:18.312Z,170
2018-11-02T14:01:18.975Z,180
2018-11-02T14:02:19.535Z,200
2018-11-02T14:03:20.116Z,395
2018-11-02T14:04:20.703Z,220
2018-11-02T14:05:21.293Z,180
2018-11-02T14:06:21.877Z,180
2018-11-02T14:08:06.975Z,145
2018-11-02T14:09:07.561Z,125
2018-11-02T14:10:08.157Z,115
2018-11-02T14:11:08.730Z,120
2018-11-02T14:12:09.317Z,125
2018-11-02T14:13:09.900Z,110
2018-11-02T14:14:10.485Z,115
2018-11-02T14:15:11.119Z,115
2018-11-02T14:16:11.706Z,110
2018-11-02T14:17:12.341Z,115
2018-11-02T14:18:12.941Z,115
2018-11-02T14:19:13.510Z,115
2018-11-02T14:20:14.094Z,110
2018-11-02T14:21:14.679Z,110
2018-11-02T14:22:15.263Z,105
2018-11-02T14:23:15.855Z,95
2018-11-02T14:24:16.432Z,85
2018-11-02T14:25:17.015Z,85
2018-11-02T14:26:17.599Z,85
2018-11-02T14:27:18.183Z,80
2018-11-02T14:28:18.771Z,75
2018-11-02T14:30:03.865Z,85
2018-11-02T14:31:04.499Z,85
2018-11-02T14:32:05.084Z,85
2018-11-02T14:33:05.667Z,95
2018-11-02T14:34:06.299Z,85
2018-11-02T14:35:06.885Z,85
2018-11-02T14:36:07.467Z,105
2018-11-02T14:37:08.100Z,140
2018-11-02T14:38:08.686Z,120
2018-11-02T14:39:09.268Z,100
2018-11-02T14:40:09.853Z,115
2018-11-02T14:41:10.455Z,110
2018-11-02T14:42:11.020Z,125
2018-11-02T14:43:11.619Z,135
2018-11-02T14:44:12.188Z,140
2018-11-02T14:45:12.771Z,240
2018-11-02T14:46:13.406Z,145
2018-11-02T14:47:13.997Z,185
2018-11-02T14:48:14.575Z,330
2018-11-02T14:49:15.210Z,180
2018-11-02T14:50:15.797Z,250
2018-11-02T14:52:00.895Z,240
2018-11-02T14:53:01.479Z,195
2018-11-02T14:54:02.062Z,175
2018-11-02T14:55:02.650Z,305
2018-11-02T14:56:03.233Z,200
2018-11-02T14:57:03.865Z,205
2018-11-02T14:58:04.450Z,150
2018-11-02T14:59:05.032Z,220
2018-11-02T15:00:05.619Z,280
2018-11-02T15:01:06.204Z,255
2018-11-02T15:02:06.838Z,195
2018-11-02T15:03:07.424Z,330
2018-11-02T15:04:08.011Z,260
2018-11-02T15:05:08.597Z,460
2018-11-02T15:06:09.179Z,130
2018-11-02T15:07:09.774Z,100
2018-11-02T15:08:10.387Z,85
2018-11-02T15:09:10.982Z,80
2018-11-02T15:10:11.566Z,75
2018-11-02T15:11:12.175Z,65